sensor_id;sensor_type;location;lat;lon;timestamp;P1;durP1;ratioP1;P2;durP2;ratioP2
23060;SDS011;11698;47.690;9.132;2022-09-01T00:01:03;11.05;;;7.03;;
23060;SDS011;11698;47.690;9.132;2022-09-01T00:03:32;11.43;;;7.47;;
23060;SDS011;11698;47.690;9.132;2022-09-01T00:05:59;8.93;;;7.70;;
23060;SDS011;11698;47.690;9.132;2022-09-01T00:08:25;10.55;;;7.75;;
23060;SDS011;11698;47.690;9.132;2022-09-01T00:10:51;10.65;;;7.53;;
23060;SDS011;11698;47.690;9.132;2022-09-01T00:13:17;12.45;;;8.23;;
23060;SDS011;11698;47.690;9.132;2022-09-01T00:15:43;11.38;;;8.85;;
23060;SDS011;11698;47.690;9.132;2022-09-01T00:18:09;11.70;;;8.20;;
23060;SDS011;11698;47.690;9.132;2022-09-01T00:20:35;10.25;;;8.18;;
23060;SDS011;11698;47.690;9.132;2022-09-01T00:23:01;10.48;;;8.40;;
23060;SDS011;11698;47.690;9.132;2022-09-01T00:25:27;11.93;;;8.73;;
23060;SDS011;11698;47.690;9.132;2022-09-01T00:27:54;11.35;;;7.72;;
23060;SDS011;11698;47.690;9.132;2022-09-01T00:30:24;11.23;;;7.88;;
23060;SDS011;11698;47.690;9.132;2022-09-01T00:32:50;10.73;;;7.57;;
23060;SDS011;11698;47.690;9.132;2022-09-01T00:35:17;10.55;;;7.32;;
23060;SDS011;11698;47.690;9.132;2022-09-01T00:37:43;10.32;;;7.10;;
23060;SDS011;11698;47.690;9.132;2022-09-01T00:40:10;12.98;;;7.57;;
23060;SDS011;11698;47.690;9.132;2022-09-01T00:42:37;9.48;;;6.93;;
23060;SDS011;11698;47.690;9.132;2022-09-01T00:45:04;8.95;;;7.07;;
23060;SDS011;11698;47.690;9.132;2022-09-01T00:47:30;10.60;;;7.30;;
23060;SDS011;11698;47.690;9.132;2022-09-01T00:49:56;10.33;;;7.57;;
23060;SDS011;11698;47.690;9.132;2022-09-01T00:54:50;10.55;;;7.80;;
23060;SDS011;11698;47.690;9.132;2022-09-01T00:57:17;11.23;;;8.13;;
23060;SDS011;11698;47.690;9.132;2022-09-01T00:59:51;9.80;;;8.00;;
23060;SDS011;11698;47.690;9.132;2022-09-01T01:02:18;10.93;;;8.30;;
23060;SDS011;11698;47.690;9.132;2022-09-01T01:04:44;10.48;;;8.48;;
23060;SDS011;11698;47.690;9.132;2022-09-01T01:07:10;10.77;;;8.20;;
23060;SDS011;11698;47.690;9.132;2022-09-01T01:09:38;10.05;;;7.85;;
23060;SDS011;11698;47.690;9.132;2022-09-01T01:12:05;9.43;;;8.27;;
23060;SDS011;11698;47.690;9.132;2022-09-01T01:14:33;9.57;;;8.32;;
23060;SDS011;11698;47.690;9.132;2022-09-01T01:17:00;10.48;;;8.45;;
23060;SDS011;11698;47.690;9.132;2022-09-01T01:22:12;11.90;;;9.00;;
23060;SDS011;11698;47.690;9.132;2022-09-01T01:24:59;9.55;;;7.90;;
23060;SDS011;11698;47.690;9.132;2022-09-01T01:27:29;11.98;;;8.77;;
23060;SDS011;11698;47.690;9.132;2022-09-01T01:29:56;11.15;;;8.70;;
23060;SDS011;11698;47.690;9.132;2022-09-01T01:32:22;10.65;;;8.75;;
23060;SDS011;11698;47.690;9.132;2022-09-01T01:34:49;9.57;;;8.37;;
23060;SDS011;11698;47.690;9.132;2022-09-01T01:37:16;10.63;;;9.18;;
23060;SDS011;11698;47.690;9.132;2022-09-01T01:39:42;11.52;;;9.00;;
23060;SDS011;11698;47.690;9.132;2022-09-01T01:42:09;12.00;;;9.27;;
23060;SDS011;11698;47.690;9.132;2022-09-01T01:44:36;11.50;;;8.98;;
23060;SDS011;11698;47.690;9.132;2022-09-01T01:47:04;13.40;;;9.25;;
23060;SDS011;11698;47.690;9.132;2022-09-01T01:49:32;11.57;;;9.52;;
23060;SDS011;11698;47.690;9.132;2022-09-01T01:51:58;14.15;;;11.18;;
23060;SDS011;11698;47.690;9.132;2022-09-01T01:54:25;15.43;;;11.48;;
23060;SDS011;11698;47.690;9.132;2022-09-01T01:56:55;16.80;;;13.02;;
23060;SDS011;11698;47.690;9.132;2022-09-01T01:59:22;18.25;;;13.75;;
23060;SDS011;11698;47.690;9.132;2022-09-01T02:01:48;18.42;;;14.60;;
23060;SDS011;11698;47.690;9.132;2022-09-01T02:04:16;23.40;;;15.85;;
23060;SDS011;11698;47.690;9.132;2022-09-01T02:06:43;19.55;;;15.93;;
23060;SDS011;11698;47.690;9.132;2022-09-01T02:09:10;20.85;;;16.45;;
23060;SDS011;11698;47.690;9.132;2022-09-01T02:11:36;21.13;;;16.58;;
23060;SDS011;11698;47.690;9.132;2022-09-01T02:14:03;20.02;;;15.82;;
23060;SDS011;11698;47.690;9.132;2022-09-01T02:16:31;19.63;;;15.82;;
23060;SDS011;11698;47.690;9.132;2022-09-01T02:18:58;20.43;;;15.53;;
23060;SDS011;11698;47.690;9.132;2022-09-01T02:21:24;19.20;;;15.55;;
23060;SDS011;11698;47.690;9.132;2022-09-01T02:23:55;20.90;;;15.90;;
23060;SDS011;11698;47.690;9.132;2022-09-01T02:26:26;21.05;;;16.35;;
23060;SDS011;11698;47.690;9.132;2022-09-01T02:28:55;21.60;;;16.70;;
23060;SDS011;11698;47.690;9.132;2022-09-01T02:31:22;20.73;;;16.40;;
23060;SDS011;11698;47.690;9.132;2022-09-01T02:33:49;20.95;;;15.68;;
23060;SDS011;11698;47.690;9.132;2022-09-01T02:36:16;19.42;;;15.57;;
23060;SDS011;11698;47.690;9.132;2022-09-01T02:38:43;19.17;;;15.32;;
23060;SDS011;11698;47.690;9.132;2022-09-01T02:41:10;18.80;;;15.20;;
23060;SDS011;11698;47.690;9.132;2022-09-01T02:43:38;19.77;;;15.57;;
23060;SDS011;11698;47.690;9.132;2022-09-01T02:46:04;20.00;;;15.38;;
23060;SDS011;11698;47.690;9.132;2022-09-01T02:48:35;19.90;;;15.13;;
23060;SDS011;11698;47.690;9.132;2022-09-01T02:51:03;21.63;;;14.77;;
23060;SDS011;11698;47.690;9.132;2022-09-01T02:53:30;19.50;;;15.25;;
23060;SDS011;11698;47.690;9.132;2022-09-01T02:55:58;20.92;;;15.07;;
23060;SDS011;11698;47.690;9.132;2022-09-01T02:58:26;19.67;;;15.43;;
23060;SDS011;11698;47.690;9.132;2022-09-01T03:00:53;18.50;;;14.07;;
23060;SDS011;11698;47.690;9.132;2022-09-01T03:03:19;19.88;;;14.63;;
23060;SDS011;11698;47.690;9.132;2022-09-01T03:05:46;19.45;;;14.70;;
23060;SDS011;11698;47.690;9.132;2022-09-01T03:08:12;19.85;;;14.40;;
23060;SDS011;11698;47.690;9.132;2022-09-01T03:10:43;19.45;;;14.73;;
23060;SDS011;11698;47.690;9.132;2022-09-01T03:13:15;17.50;;;13.65;;
23060;SDS011;11698;47.690;9.132;2022-09-01T03:15:43;18.10;;;14.20;;
23060;SDS011;11698;47.690;9.132;2022-09-01T03:18:10;17.92;;;13.73;;
23060;SDS011;11698;47.690;9.132;2022-09-01T03:20:37;17.07;;;13.70;;
23060;SDS011;11698;47.690;9.132;2022-09-01T03:23:08;17.38;;;13.80;;
23060;SDS011;11698;47.690;9.132;2022-09-01T03:25:34;17.25;;;12.68;;
23060;SDS011;11698;47.690;9.132;2022-09-01T03:28:01;18.00;;;14.20;;
23060;SDS011;11698;47.690;9.132;2022-09-01T03:30:28;17.52;;;13.13;;
23060;SDS011;11698;47.690;9.132;2022-09-01T03:32:55;15.95;;;12.27;;
23060;SDS011;11698;47.690;9.132;2022-09-01T03:35:22;17.13;;;12.43;;
23060;SDS011;11698;47.690;9.132;2022-09-01T03:37:49;17.05;;;13.25;;
23060;SDS011;11698;47.690;9.132;2022-09-01T03:40:16;16.38;;;12.57;;
23060;SDS011;11698;47.690;9.132;2022-09-01T03:42:43;16.92;;;12.45;;
23060;SDS011;11698;47.690;9.132;2022-09-01T03:45:10;16.45;;;11.75;;
23060;SDS011;11698;47.690;9.132;2022-09-01T03:47:41;15.65;;;12.02;;
23060;SDS011;11698;47.690;9.132;2022-09-01T03:50:09;12.80;;;10.80;;
23060;SDS011;11698;47.690;9.132;2022-09-01T03:52:55;15.73;;;11.18;;
23060;SDS011;11698;47.690;9.132;2022-09-01T03:55:24;13.63;;;10.85;;
23060;SDS011;11698;47.690;9.132;2022-09-01T03:57:52;14.32;;;10.95;;
23060;SDS011;11698;47.690;9.132;2022-09-01T04:00:18;15.63;;;11.13;;
23060;SDS011;11698;47.690;9.132;2022-09-01T04:02:48;12.90;;;10.68;;
23060;SDS011;11698;47.690;9.132;2022-09-01T04:05:16;11.93;;;10.02;;
23060;SDS011;11698;47.690;9.132;2022-09-01T04:07:42;12.00;;;9.80;;
23060;SDS011;11698;47.690;9.132;2022-09-01T04:10:10;12.30;;;9.97;;
23060;SDS011;11698;47.690;9.132;2022-09-01T04:12:37;11.55;;;9.45;;
23060;SDS011;11698;47.690;9.132;2022-09-01T04:15:04;12.13;;;9.80;;
23060;SDS011;11698;47.690;9.132;2022-09-01T04:17:32;11.45;;;9.73;;
23060;SDS011;11698;47.690;9.132;2022-09-01T04:20:16;11.30;;;9.32;;
23060;SDS011;11698;47.690;9.132;2022-09-01T04:22:45;11.60;;;9.87;;
23060;SDS011;11698;47.690;9.132;2022-09-01T04:25:12;12.57;;;9.32;;
23060;SDS011;11698;47.690;9.132;2022-09-01T04:27:38;10.93;;;8.52;;
23060;SDS011;11698;47.690;9.132;2022-09-01T04:30:05;10.10;;;8.82;;
23060;SDS011;11698;47.690;9.132;2022-09-01T04:32:35;11.50;;;8.60;;
23060;SDS011;11698;47.690;9.132;2022-09-01T04:35:01;9.37;;;7.83;;
23060;SDS011;11698;47.690;9.132;2022-09-01T04:37:27;11.15;;;8.20;;
23060;SDS011;11698;47.690;9.132;2022-09-01T04:39:55;10.38;;;8.20;;
23060;SDS011;11698;47.690;9.132;2022-09-01T04:42:21;9.63;;;7.93;;
23060;SDS011;11698;47.690;9.132;2022-09-01T04:44:48;11.35;;;8.95;;
23060;SDS011;11698;47.690;9.132;2022-09-01T04:47:15;10.20;;;8.50;;
23060;SDS011;11698;47.690;9.132;2022-09-01T04:49:44;10.07;;;7.65;;
23060;SDS011;11698;47.690;9.132;2022-09-01T04:52:11;9.85;;;7.82;;
23060;SDS011;11698;47.690;9.132;2022-09-01T04:54:37;11.30;;;7.75;;
23060;SDS011;11698;47.690;9.132;2022-09-01T04:57:03;9.00;;;7.45;;
23060;SDS011;11698;47.690;9.132;2022-09-01T04:59:32;8.90;;;7.20;;
23060;SDS011;11698;47.690;9.132;2022-09-01T05:01:59;10.23;;;7.32;;
23060;SDS011;11698;47.690;9.132;2022-09-01T05:04:30;9.25;;;6.95;;
23060;SDS011;11698;47.690;9.132;2022-09-01T05:06:58;8.35;;;7.05;;
23060;SDS011;11698;47.690;9.132;2022-09-01T05:09:29;8.77;;;6.90;;
23060;SDS011;11698;47.690;9.132;2022-09-01T05:11:56;9.35;;;6.78;;
23060;SDS011;11698;47.690;9.132;2022-09-01T05:14:25;10.32;;;7.05;;
23060;SDS011;11698;47.690;9.132;2022-09-01T05:16:58;7.65;;;6.78;;
23060;SDS011;11698;47.690;9.132;2022-09-01T05:19:25;7.88;;;6.70;;
23060;SDS011;11698;47.690;9.132;2022-09-01T05:21:53;7.38;;;6.50;;
23060;SDS011;11698;47.690;9.132;2022-09-01T05:24:22;8.07;;;6.45;;
23060;SDS011;11698;47.690;9.132;2022-09-01T05:26:54;9.60;;;6.53;;
23060;SDS011;11698;47.690;9.132;2022-09-01T05:29:20;7.87;;;6.30;;
23060;SDS011;11698;47.690;9.132;2022-09-01T05:31:47;7.17;;;6.00;;
23060;SDS011;11698;47.690;9.132;2022-09-01T05:34:14;8.90;;;6.22;;
23060;SDS011;11698;47.690;9.132;2022-09-01T05:36:44;8.40;;;6.18;;
23060;SDS011;11698;47.690;9.132;2022-09-01T05:39:14;8.55;;;6.43;;
23060;SDS011;11698;47.690;9.132;2022-09-01T05:41:40;7.38;;;5.95;;
23060;SDS011;11698;47.690;9.132;2022-09-01T05:44:07;7.07;;;5.82;;
23060;SDS011;11698;47.690;9.132;2022-09-01T05:46:34;8.30;;;6.53;;
23060;SDS011;11698;47.690;9.132;2022-09-01T05:49:00;8.05;;;6.30;;
23060;SDS011;11698;47.690;9.132;2022-09-01T05:51:27;7.05;;;6.03;;
23060;SDS011;11698;47.690;9.132;2022-09-01T05:53:55;6.97;;;5.85;;
23060;SDS011;11698;47.690;9.132;2022-09-01T05:56:26;7.37;;;6.20;;
23060;SDS011;11698;47.690;9.132;2022-09-01T05:58:52;8.57;;;6.50;;
23060;SDS011;11698;47.690;9.132;2022-09-01T06:01:19;7.53;;;6.40;;
23060;SDS011;11698;47.690;9.132;2022-09-01T06:03:49;7.10;;;5.70;;
23060;SDS011;11698;47.690;9.132;2022-09-01T06:06:22;7.68;;;6.05;;
23060;SDS011;11698;47.690;9.132;2022-09-01T06:08:49;7.50;;;6.38;;
23060;SDS011;11698;47.690;9.132;2022-09-01T06:11:16;7.15;;;5.80;;
23060;SDS011;11698;47.690;9.132;2022-09-01T06:13:43;6.75;;;5.95;;
23060;SDS011;11698;47.690;9.132;2022-09-01T06:16:11;7.22;;;5.63;;
23060;SDS011;11698;47.690;9.132;2022-09-01T06:18:38;6.50;;;5.80;;
23060;SDS011;11698;47.690;9.132;2022-09-01T06:21:05;7.30;;;6.20;;
23060;SDS011;11698;47.690;9.132;2022-09-01T06:23:32;7.00;;;5.90;;
23060;SDS011;11698;47.690;9.132;2022-09-01T06:26:00;6.70;;;5.95;;
23060;SDS011;11698;47.690;9.132;2022-09-01T06:28:27;6.72;;;5.75;;
23060;SDS011;11698;47.690;9.132;2022-09-01T06:30:54;6.90;;;5.85;;
23060;SDS011;11698;47.690;9.132;2022-09-01T06:33:21;7.80;;;5.97;;
23060;SDS011;11698;47.690;9.132;2022-09-01T06:35:49;7.87;;;5.80;;
23060;SDS011;11698;47.690;9.132;2022-09-01T06:38:16;8.00;;;5.68;;
23060;SDS011;11698;47.690;9.132;2022-09-01T06:40:43;8.02;;;5.72;;
23060;SDS011;11698;47.690;9.132;2022-09-01T06:43:10;5.72;;;5.07;;
23060;SDS011;11698;47.690;9.132;2022-09-01T06:45:44;5.75;;;5.20;;
23060;SDS011;11698;47.690;9.132;2022-09-01T06:48:18;7.30;;;5.20;;
23060;SDS011;11698;47.690;9.132;2022-09-01T06:50:46;5.75;;;5.20;;
23060;SDS011;11698;47.690;9.132;2022-09-01T06:53:12;6.00;;;5.10;;
23060;SDS011;11698;47.690;9.132;2022-09-01T06:55:40;5.95;;;4.90;;
23060;SDS011;11698;47.690;9.132;2022-09-01T06:58:08;5.90;;;4.97;;
23060;SDS011;11698;47.690;9.132;2022-09-01T07:00:38;7.00;;;4.97;;
23060;SDS011;11698;47.690;9.132;2022-09-01T07:03:07;5.70;;;5.10;;
23060;SDS011;11698;47.690;9.132;2022-09-01T07:05:36;7.57;;;4.80;;
23060;SDS011;11698;47.690;9.132;2022-09-01T07:08:03;6.93;;;4.87;;
23060;SDS011;11698;47.690;9.132;2022-09-01T07:10:32;5.45;;;4.43;;
23060;SDS011;11698;47.690;9.132;2022-09-01T07:12:59;5.35;;;4.47;;
23060;SDS011;11698;47.690;9.132;2022-09-01T07:15:25;5.45;;;4.22;;
23060;SDS011;11698;47.690;9.132;2022-09-01T07:17:53;5.18;;;4.53;;
23060;SDS011;11698;47.690;9.132;2022-09-01T07:20:21;5.73;;;4.37;;
23060;SDS011;11698;47.690;9.132;2022-09-01T07:22:48;5.63;;;4.30;;
23060;SDS011;11698;47.690;9.132;2022-09-01T07:25:14;4.50;;;3.80;;
23060;SDS011;11698;47.690;9.132;2022-09-01T07:27:42;4.73;;;4.23;;
23060;SDS011;11698;47.690;9.132;2022-09-01T07:30:13;4.75;;;3.95;;
23060;SDS011;11698;47.690;9.132;2022-09-01T07:32:39;4.93;;;4.32;;
23060;SDS011;11698;47.690;9.132;2022-09-01T07:35:09;4.85;;;4.10;;
23060;SDS011;11698;47.690;9.132;2022-09-01T07:37:35;4.95;;;4.07;;
23060;SDS011;11698;47.690;9.132;2022-09-01T07:40:05;4.80;;;3.80;;
23060;SDS011;11698;47.690;9.132;2022-09-01T07:42:32;4.45;;;3.90;;
23060;SDS011;11698;47.690;9.132;2022-09-01T07:44:59;4.82;;;4.35;;
23060;SDS011;11698;47.690;9.132;2022-09-01T07:47:25;4.47;;;4.00;;
23060;SDS011;11698;47.690;9.132;2022-09-01T07:49:54;5.15;;;4.18;;
23060;SDS011;11698;47.690;9.132;2022-09-01T07:52:20;5.20;;;3.90;;
23060;SDS011;11698;47.690;9.132;2022-09-01T07:54:46;6.23;;;4.07;;
23060;SDS011;11698;47.690;9.132;2022-09-01T07:57:12;4.88;;;3.83;;
23060;SDS011;11698;47.690;9.132;2022-09-01T07:59:39;4.72;;;3.70;;
23060;SDS011;11698;47.690;9.132;2022-09-01T08:02:07;4.18;;;3.67;;
23060;SDS011;11698;47.690;9.132;2022-09-01T08:04:34;4.68;;;4.05;;
23060;SDS011;11698;47.690;9.132;2022-09-01T08:07:00;4.78;;;3.80;;
23060;SDS011;11698;47.690;9.132;2022-09-01T08:09:27;3.92;;;3.42;;
23060;SDS011;11698;47.690;9.132;2022-09-01T08:11:53;3.83;;;3.35;;
23060;SDS011;11698;47.690;9.132;2022-09-01T08:14:19;3.92;;;3.47;;
23060;SDS011;11698;47.690;9.132;2022-09-01T08:16:45;4.25;;;3.85;;
23060;SDS011;11698;47.690;9.132;2022-09-01T08:19:11;3.53;;;3.22;;
23060;SDS011;11698;47.690;9.132;2022-09-01T08:21:37;4.72;;;3.80;;
23060;SDS011;11698;47.690;9.132;2022-09-01T08:24:04;3.95;;;3.47;;
23060;SDS011;11698;47.690;9.132;2022-09-01T08:26:30;4.60;;;3.50;;
23060;SDS011;11698;47.690;9.132;2022-09-01T08:28:56;3.90;;;3.38;;
23060;SDS011;11698;47.690;9.132;2022-09-01T08:31:23;4.00;;;3.22;;
23060;SDS011;11698;47.690;9.132;2022-09-01T08:33:49;3.40;;;3.10;;
23060;SDS011;11698;47.690;9.132;2022-09-01T08:36:16;3.53;;;2.90;;
23060;SDS011;11698;47.690;9.132;2022-09-01T08:38:42;3.38;;;3.00;;
23060;SDS011;11698;47.690;9.132;2022-09-01T08:41:14;3.40;;;3.05;;
23060;SDS011;11698;47.690;9.132;2022-09-01T08:46:09;3.00;;;2.70;;
23060;SDS011;11698;47.690;9.132;2022-09-01T08:48:40;3.05;;;2.75;;
23060;SDS011;11698;47.690;9.132;2022-09-01T08:56:28;3.28;;;2.97;;
23060;SDS011;11698;47.690;9.132;2022-09-01T08:58:56;2.83;;;2.63;;
23060;SDS011;11698;47.690;9.132;2022-09-01T09:01:58;3.50;;;3.20;;
23060;SDS011;11698;47.690;9.132;2022-09-01T09:04:32;3.20;;;2.90;;
23060;SDS011;11698;47.690;9.132;2022-09-01T09:07:11;3.70;;;3.20;;
23060;SDS011;11698;47.690;9.132;2022-09-01T09:09:40;3.13;;;2.83;;
23060;SDS011;11698;47.690;9.132;2022-09-01T09:12:17;3.40;;;3.10;;
23060;SDS011;11698;47.690;9.132;2022-09-01T09:15:08;3.70;;;3.17;;
23060;SDS011;11698;47.690;9.132;2022-09-01T09:17:38;3.40;;;2.70;;
23060;SDS011;11698;47.690;9.132;2022-09-01T09:20:06;3.20;;;2.63;;
23060;SDS011;11698;47.690;9.132;2022-09-01T09:22:32;3.20;;;2.50;;
23060;SDS011;11698;47.690;9.132;2022-09-01T09:25:17;3.03;;;2.72;;
23060;SDS011;11698;47.690;9.132;2022-09-01T09:27:44;3.00;;;2.75;;
23060;SDS011;11698;47.690;9.132;2022-09-01T09:32:42;2.88;;;2.60;;
23060;SDS011;11698;47.690;9.132;2022-09-01T09:35:20;2.78;;;2.50;;
23060;SDS011;11698;47.690;9.132;2022-09-01T09:37:47;3.10;;;2.80;;
23060;SDS011;11698;47.690;9.132;2022-09-01T09:40:14;2.95;;;2.65;;
23060;SDS011;11698;47.690;9.132;2022-09-01T09:47:48;2.67;;;2.47;;
23060;SDS011;11698;47.690;9.132;2022-09-01T09:52:50;2.55;;;2.30;;
23060;SDS011;11698;47.690;9.132;2022-09-01T09:57:43;2.00;;;1.90;;
23060;SDS011;11698;47.690;9.132;2022-09-01T10:00:19;2.42;;;2.22;;
23060;SDS011;11698;47.690;9.132;2022-09-01T10:02:47;2.67;;;2.47;;
23060;SDS011;11698;47.690;9.132;2022-09-01T10:08:01;3.08;;;2.30;;
23060;SDS011;11698;47.690;9.132;2022-09-01T10:10:29;2.45;;;2.17;;
23060;SDS011;11698;47.690;9.132;2022-09-01T10:12:56;2.40;;;2.20;;
23060;SDS011;11698;47.690;9.132;2022-09-01T10:15:27;2.47;;;2.25;;
23060;SDS011;11698;47.690;9.132;2022-09-01T10:17:54;2.80;;;2.60;;
23060;SDS011;11698;47.690;9.132;2022-09-01T10:20:24;2.30;;;2.10;;
23060;SDS011;11698;47.690;9.132;2022-09-01T10:22:50;2.23;;;2.00;;
23060;SDS011;11698;47.690;9.132;2022-09-01T10:25:21;2.10;;;1.90;;
23060;SDS011;11698;47.690;9.132;2022-09-01T10:27:49;2.20;;;2.00;;
23060;SDS011;11698;47.690;9.132;2022-09-01T10:30:17;2.60;;;2.10;;
23060;SDS011;11698;47.690;9.132;2022-09-01T10:35:11;2.10;;;2.00;;
23060;SDS011;11698;47.690;9.132;2022-09-01T10:37:40;2.30;;;2.10;;
23060;SDS011;11698;47.690;9.132;2022-09-01T10:42:40;2.50;;;2.28;;
23060;SDS011;11698;47.690;9.132;2022-09-01T10:45:10;2.65;;;2.30;;
23060;SDS011;11698;47.690;9.132;2022-09-01T10:47:41;1.90;;;1.80;;
23060;SDS011;11698;47.690;9.132;2022-09-01T10:50:25;2.10;;;1.90;;
23060;SDS011;11698;47.690;9.132;2022-09-01T10:52:52;2.90;;;2.20;;
23060;SDS011;11698;47.690;9.132;2022-09-01T10:59:06;2.22;;;2.10;;
23060;SDS011;11698;47.690;9.132;2022-09-01T11:01:00;2.30;;;2.10;;
23060;SDS011;11698;47.690;9.132;2022-09-01T11:06:05;2.28;;;2.08;;
23060;SDS011;11698;47.690;9.132;2022-09-01T11:13:35;2.50;;;2.30;;
23060;SDS011;11698;47.690;9.132;2022-09-01T11:18:46;2.40;;;2.20;;
23060;SDS011;11698;47.690;9.132;2022-09-01T11:21:25;3.00;;;2.30;;
23060;SDS011;11698;47.690;9.132;2022-09-01T11:26:44;2.22;;;2.03;;
23060;SDS011;11698;47.690;9.132;2022-09-01T11:29:48;2.38;;;2.17;;
23060;SDS011;11698;47.690;9.132;2022-09-01T11:31:57;2.50;;;1.70;;
23060;SDS011;11698;47.690;9.132;2022-09-01T11:34:23;2.35;;;2.15;;
23060;SDS011;11698;47.690;9.132;2022-09-01T11:36:52;2.30;;;2.10;;
23060;SDS011;11698;47.690;9.132;2022-09-01T11:39:23;2.15;;;2.03;;
23060;SDS011;11698;47.690;9.132;2022-09-01T11:44:30;2.30;;;2.10;;
23060;SDS011;11698;47.690;9.132;2022-09-01T11:47:00;2.20;;;1.90;;
23060;SDS011;11698;47.690;9.132;2022-09-01T11:49:34;1.90;;;1.70;;
23060;SDS011;11698;47.690;9.132;2022-09-01T11:52:02;1.67;;;1.58;;
23060;SDS011;11698;47.690;9.132;2022-09-01T11:54:29;1.90;;;1.80;;
23060;SDS011;11698;47.690;9.132;2022-09-01T11:57:25;2.00;;;1.90;;
23060;SDS011;11698;47.690;9.132;2022-09-01T11:59:49;2.15;;;1.73;;
23060;SDS011;11698;47.690;9.132;2022-09-01T12:02:22;1.90;;;1.70;;
23060;SDS011;11698;47.690;9.132;2022-09-01T12:04:51;1.60;;;1.50;;
23060;SDS011;11698;47.690;9.132;2022-09-01T12:09:54;1.67;;;1.58;;
23060;SDS011;11698;47.690;9.132;2022-09-01T12:12:37;2.40;;;1.55;;
23060;SDS011;11698;47.690;9.132;2022-09-01T12:17:31;1.70;;;1.60;;
23060;SDS011;11698;47.690;9.132;2022-09-01T12:20:17;2.42;;;2.10;;
23060;SDS011;11698;47.690;9.132;2022-09-01T12:22:43;2.25;;;1.80;;
23060;SDS011;11698;47.690;9.132;2022-09-01T12:25:17;1.93;;;1.83;;
23060;SDS011;11698;47.690;9.132;2022-09-01T12:27:43;1.95;;;1.80;;
23060;SDS011;11698;47.690;9.132;2022-09-01T12:30:10;1.75;;;1.65;;
23060;SDS011;11698;47.690;9.132;2022-09-01T12:32:36;2.45;;;1.70;;
23060;SDS011;11698;47.690;9.132;2022-09-01T12:35:03;1.80;;;1.70;;
23060;SDS011;11698;47.690;9.132;2022-09-01T12:37:35;2.10;;;1.90;;
23060;SDS011;11698;47.690;9.132;2022-09-01T12:40:01;1.70;;;1.60;;
23060;SDS011;11698;47.690;9.132;2022-09-01T12:42:29;2.00;;;1.80;;
23060;SDS011;11698;47.690;9.132;2022-09-01T12:44:56;1.77;;;1.63;;
23060;SDS011;11698;47.690;9.132;2022-09-01T12:52:34;1.80;;;1.50;;
23060;SDS011;11698;47.690;9.132;2022-09-01T13:02:36;1.63;;;1.52;;
23060;SDS011;11698;47.690;9.132;2022-09-01T13:07:44;1.52;;;1.42;;
23060;SDS011;11698;47.690;9.132;2022-09-01T13:10:10;1.48;;;1.33;;
23060;SDS011;11698;47.690;9.132;2022-09-01T13:12:42;2.60;;;1.38;;
23060;SDS011;11698;47.690;9.132;2022-09-01T13:15:08;1.90;;;1.40;;
23060;SDS011;11698;47.690;9.132;2022-09-01T13:17:34;1.65;;;1.55;;
23060;SDS011;11698;47.690;9.132;2022-09-01T13:20:02;1.50;;;1.40;;
23060;SDS011;11698;47.690;9.132;2022-09-01T13:22:28;1.60;;;1.50;;
23060;SDS011;11698;47.690;9.132;2022-09-01T13:24:54;2.30;;;1.60;;
23060;SDS011;11698;47.690;9.132;2022-09-01T13:27:20;1.90;;;1.40;;
23060;SDS011;11698;47.690;9.132;2022-09-01T13:29:47;2.00;;;1.58;;
23060;SDS011;11698;47.690;9.132;2022-09-01T13:32:14;1.75;;;1.65;;
23060;SDS011;11698;47.690;9.132;2022-09-01T13:34:41;2.33;;;1.40;;
23060;SDS011;11698;47.690;9.132;2022-09-01T13:37:07;1.70;;;1.60;;
23060;SDS011;11698;47.690;9.132;2022-09-01T13:39:33;2.10;;;1.50;;
23060;SDS011;11698;47.690;9.132;2022-09-01T13:41:59;1.77;;;1.50;;
23060;SDS011;11698;47.690;9.132;2022-09-01T13:44:25;1.60;;;1.50;;
23060;SDS011;11698;47.690;9.132;2022-09-01T13:46:51;1.70;;;1.60;;
23060;SDS011;11698;47.690;9.132;2022-09-01T13:49:17;1.90;;;1.70;;
23060;SDS011;11698;47.690;9.132;2022-09-01T13:51:49;1.73;;;1.63;;
23060;SDS011;11698;47.690;9.132;2022-09-01T13:54:15;2.55;;;1.63;;
23060;SDS011;11698;47.690;9.132;2022-09-01T13:56:41;1.90;;;1.40;;
23060;SDS011;11698;47.690;9.132;2022-09-01T13:59:07;1.98;;;1.70;;
23060;SDS011;11698;47.690;9.132;2022-09-01T14:01:34;1.98;;;1.42;;
23060;SDS011;11698;47.690;9.132;2022-09-01T14:04:00;1.67;;;1.58;;
23060;SDS011;11698;47.690;9.132;2022-09-01T14:06:28;1.73;;;1.38;;
23060;SDS011;11698;47.690;9.132;2022-09-01T14:08:54;1.60;;;1.50;;
23060;SDS011;11698;47.690;9.132;2022-09-01T14:11:22;1.77;;;1.40;;
23060;SDS011;11698;47.690;9.132;2022-09-01T14:13:48;1.58;;;1.48;;
23060;SDS011;11698;47.690;9.132;2022-09-01T14:16:14;1.85;;;1.70;;
23060;SDS011;11698;47.690;9.132;2022-09-01T14:18:41;1.50;;;1.40;;
23060;SDS011;11698;47.690;9.132;2022-09-01T14:21:13;1.50;;;1.40;;
23060;SDS011;11698;47.690;9.132;2022-09-01T14:23:43;2.63;;;1.77;;
23060;SDS011;11698;47.690;9.132;2022-09-01T14:26:10;4.10;;;1.88;;
23060;SDS011;11698;47.690;9.132;2022-09-01T14:28:37;1.80;;;1.70;;
23060;SDS011;11698;47.690;9.132;2022-09-01T14:31:11;1.80;;;1.70;;
23060;SDS011;11698;47.690;9.132;2022-09-01T14:33:37;1.60;;;1.50;;
23060;SDS011;11698;47.690;9.132;2022-09-01T14:36:04;2.67;;;1.90;;
23060;SDS011;11698;47.690;9.132;2022-09-01T14:38:30;1.70;;;1.60;;
23060;SDS011;11698;47.690;9.132;2022-09-01T14:40:56;2.08;;;1.50;;
23060;SDS011;11698;47.690;9.132;2022-09-01T14:43:22;1.98;;;1.80;;
23060;SDS011;11698;47.690;9.132;2022-09-01T14:46:00;2.03;;;1.60;;
23060;SDS011;11698;47.690;9.132;2022-09-01T14:48:26;1.77;;;1.67;;
23060;SDS011;11698;47.690;9.132;2022-09-01T14:50:52;2.20;;;1.60;;
23060;SDS011;11698;47.690;9.132;2022-09-01T14:53:18;1.85;;;1.60;;
23060;SDS011;11698;47.690;9.132;2022-09-01T14:55:46;2.35;;;1.52;;
23060;SDS011;11698;47.690;9.132;2022-09-01T14:58:12;1.70;;;1.60;;
23060;SDS011;11698;47.690;9.132;2022-09-01T15:00:38;1.60;;;1.50;;
23060;SDS011;11698;47.690;9.132;2022-09-01T15:03:05;1.90;;;1.80;;
23060;SDS011;11698;47.690;9.132;2022-09-01T15:05:31;1.58;;;1.48;;
23060;SDS011;11698;47.690;9.132;2022-09-01T15:07:57;2.40;;;1.73;;
23060;SDS011;11698;47.690;9.132;2022-09-01T15:10:24;1.77;;;1.60;;
23060;SDS011;11698;47.690;9.132;2022-09-01T15:12:51;1.60;;;1.50;;
23060;SDS011;11698;47.690;9.132;2022-09-01T15:15:17;1.65;;;1.55;;
23060;SDS011;11698;47.690;9.132;2022-09-01T15:17:43;1.63;;;1.52;;
23060;SDS011;11698;47.690;9.132;2022-09-01T15:20:09;1.90;;;1.80;;
23060;SDS011;11698;47.690;9.132;2022-09-01T15:22:54;2.10;;;1.70;;
23060;SDS011;11698;47.690;9.132;2022-09-01T15:25:20;1.70;;;1.60;;
23060;SDS011;11698;47.690;9.132;2022-09-01T15:27:46;1.67;;;1.58;;
23060;SDS011;11698;47.690;9.132;2022-09-01T15:30:12;1.70;;;1.60;;
23060;SDS011;11698;47.690;9.132;2022-09-01T15:32:43;2.08;;;1.88;;
23060;SDS011;11698;47.690;9.132;2022-09-01T15:35:09;2.30;;;2.10;;
23060;SDS011;11698;47.690;9.132;2022-09-01T15:37:35;2.53;;;2.08;;
23060;SDS011;11698;47.690;9.132;2022-09-01T15:40:02;2.27;;;2.07;;
23060;SDS011;11698;47.690;9.132;2022-09-01T15:42:28;2.90;;;2.10;;
23060;SDS011;11698;47.690;9.132;2022-09-01T15:44:55;1.80;;;1.70;;
23060;SDS011;11698;47.690;9.132;2022-09-01T15:47:21;2.03;;;1.83;;
23060;SDS011;11698;47.690;9.132;2022-09-01T15:49:47;2.05;;;1.80;;
23060;SDS011;11698;47.690;9.132;2022-09-01T15:52:14;2.50;;;1.98;;
23060;SDS011;11698;47.690;9.132;2022-09-01T15:54:40;2.03;;;1.80;;
23060;SDS011;11698;47.690;9.132;2022-09-01T15:57:06;2.05;;;1.65;;
23060;SDS011;11698;47.690;9.132;2022-09-01T15:59:32;2.55;;;2.00;;